Time;durP1;ratioP1;P1;durP2;ratioP2;P2;SDS_P1;SDS_P2;PMS_P1;PMS_P2;Temp;Humidity;BMP_temperature;BMP_pressure;BME280_temperature;BME280_humidity;BME280_pressure;Samples;Min_cycle;Max_cycle;Signal;HPM_P1;HPM_P2
2023/05/15 00:00:28;;;;;;;34.38;24.70;;;12.10;99.90;;;;;;5000617;28;20091;-82
2023/05/15 00:02:55;;;;;;;34.42;25.60;;;12.00;99.90;;;;;;5018782;28;20343;-82
2023/05/15 00:05:21;;;;;;;35.58;25.35;;;12.00;99.90;;;;;;5002583;28;20095;-81
2023/05/15 00:07:47;;;;;;;31.70;25.88;;;11.90;99.90;;;;;;5002816;28;20049;-82
2023/05/15 00:10:13;;;;;;;36.40;26.02;;;11.80;99.90;;;;;;4989907;28;20572;-81
2023/05/15 00:12:38;;;;;;;35.20;26.45;;;11.80;99.90;;;;;;5015611;28;20447;-82
2023/05/15 00:15:05;;;;;;;36.63;26.70;;;11.70;99.90;;;;;;5035114;28;20539;-82
2023/05/15 00:17:30;;;;;;;41.85;28.15;;;11.70;99.90;;;;;;5017472;28;20059;-82
2023/05/15 00:19:58;;;;;;;42.30;28.75;;;11.70;99.90;;;;;;5001077;28;20189;-81
2023/05/15 00:22:24;;;;;;;39.58;28.60;;;11.70;99.90;;;;;;5012895;28;20105;-81
2023/05/15 00:24:50;;;;;;;40.65;28.27;;;11.70;99.90;;;;;;5018980;28;20064;-82
2023/05/15 00:27:16;;;;;;;41.95;28.27;;;11.60;99.90;;;;;;5006227;28;20045;-81
2023/05/15 00:29:42;;;;;;;44.08;26.50;;;11.50;99.90;;;;;;5007256;28;20037;-81
2023/05/15 00:32:08;;;;;;;34.83;23.77;;;11.50;99.90;;;;;;5002716;28;20498;-81
2023/05/15 00:34:33;;;;;;;37.10;26.55;;;11.40;99.90;;;;;;5018864;28;20048;-81
2023/05/15 00:36:59;;;;;;;52.58;26.90;;;11.30;99.90;;;;;;5006031;28;20045;-81
2023/05/15 00:39:25;;;;;;;55.45;27.77;;;11.20;99.90;;;;;;4998686;28;20048;-82
2023/05/15 00:41:52;;;;;;;40.28;27.67;;;11.20;99.90;;;;;;5001402;28;20497;-82
2023/05/15 00:44:21;;;;;;;39.90;27.92;;;11.10;99.90;;;;;;5007370;28;20046;-81
2023/05/15 00:46:48;;;;;;;31.60;20.33;;;11.10;99.90;;;;;;5009163;28;20053;-82
2023/05/15 00:49:15;;;;;;;43.63;31.42;;;11.10;99.90;;;;;;5013406;28;20491;-82
2023/05/15 00:51:42;;;;;;;44.72;30.77;;;11.00;99.90;;;;;;4997075;28;20485;-81
2023/05/15 00:54:08;;;;;;;44.88;31.52;;;11.00;99.90;;;;;;5003171;28;20353;-82
2023/05/15 00:56:35;;;;;;;44.47;30.58;;;10.90;99.90;;;;;;5011705;28;20045;-82
2023/05/15 00:59:05;;;;;;;45.53;30.60;;;10.90;99.90;;;;;;5008212;28;20427;-82
2023/05/15 01:01:33;;;;;;;40.95;29.58;;;10.90;99.90;;;;;;5016281;28;20507;-82
2023/05/15 01:04:01;;;;;;;43.58;28.50;;;10.90;99.90;;;;;;5013892;28;20124;-81
2023/05/15 01:06:27;;;;;;;50.42;30.65;;;10.90;99.90;;;;;;5000479;28;20034;-82
2023/05/15 01:08:56;;;;;;;41.47;29.05;;;10.90;99.90;;;;;;5016363;28;20033;-82
2023/05/15 01:11:24;;;;;;;46.05;29.85;;;10.90;99.90;;;;;;5014528;28;20043;-82
2023/05/15 01:13:50;;;;;;;39.63;27.70;;;10.90;99.90;;;;;;5029480;28;20489;-81
2023/05/15 01:16:16;;;;;;;43.78;28.38;;;10.90;99.90;;;;;;5031481;28;20044;-81
2023/05/15 01:18:41;;;;;;;37.92;27.60;;;10.90;99.90;;;;;;4999261;28;20041;-81
2023/05/15 01:21:20;;;;;;;42.83;28.58;;;11.00;99.90;;;;;;4996662;28;20040;-81
2023/05/15 01:23:48;;;;;;;41.20;26.55;;;10.90;99.90;;;;;;5037464;28;20048;-81
2023/05/15 01:26:20;;;;;;;39.58;27.27;;;10.90;99.90;;;;;;5017089;28;20312;-81
2023/05/15 01:28:57;;;;;;;37.22;26.33;;;10.80;99.90;;;;;;5020946;28;20123;-81
2023/05/15 01:31:25;;;;;;;35.72;25.45;;;10.80;99.90;;;;;;5005341;28;20033;-82
2023/05/15 01:34:01;;;;;;;33.88;24.48;;;10.80;99.90;;;;;;5018592;28;20083;-82
2023/05/15 01:36:37;;;;;;;38.15;26.10;;;10.80;99.90;;;;;;5024373;28;20573;-82
2023/05/15 01:39:05;;;;;;;37.78;25.27;;;10.70;99.90;;;;;;5021663;28;20037;-81
2023/05/15 01:42:01;;;;;;;38.50;27.35;;;10.60;99.90;;;;;;5015378;28;20481;-82
2023/05/15 01:44:33;;;;;;;43.17;27.88;;;10.60;99.90;;;;;;5012820;28;20520;-82
2023/05/15 01:47:05;;;;;;;40.33;26.45;;;10.50;99.90;;;;;;5019295;28;20046;-82
2023/05/15 01:49:31;;;;;;;42.88;28.40;;;10.50;99.90;;;;;;5001556;28;20037;-82
2023/05/15 01:52:19;;;;;;;43.78;28.38;;;10.40;99.90;;;;;;4994422;28;20546;-81
2023/05/15 01:54:46;;;;;;;41.83;28.23;;;10.50;99.90;;;;;;5012403;28;20072;-82
2023/05/15 01:57:14;;;;;;;45.97;27.92;;;10.40;99.90;;;;;;4985387;28;20041;-82
2023/05/15 01:59:41;;;;;;;40.20;27.23;;;10.40;99.90;;;;;;5013492;28;20500;-82
2023/05/15 02:02:09;;;;;;;44.40;26.90;;;10.40;99.90;;;;;;4997137;28;20045;-81
2023/05/15 02:04:37;;;;;;;39.83;28.27;;;10.40;99.90;;;;;;5003324;28;20037;-82
2023/05/15 02:07:03;;;;;;;41.17;27.30;;;10.40;99.90;;;;;;5004857;28;20041;-83
2023/05/15 02:09:31;;;;;;;36.05;25.65;;;10.40;99.90;;;;;;5021441;28;20439;-82
2023/05/15 02:12:00;;;;;;;41.15;27.40;;;10.30;99.90;;;;;;5018799;28;20045;-81
2023/05/15 02:14:28;;;;;;;41.55;27.77;;;10.30;99.90;;;;;;5021001;28;20040;-82
2023/05/15 02:16:54;;;;;;;40.50;26.73;;;10.40;99.90;;;;;;5036539;28;20071;-82
2023/05/15 02:19:20;;;;;;;38.92;26.25;;;10.40;99.90;;;;;;5001501;28;20513;-81
2023/05/15 02:21:46;;;;;;;37.95;27.50;;;10.40;99.90;;;;;;4988738;28;20047;-81
2023/05/15 02:24:11;;;;;;;39.50;27.95;;;10.30;99.90;;;;;;4970957;28;20091;-80
2023/05/15 02:27:04;;;;;;;42.40;28.23;;;10.30;99.90;;;;;;4999336;28;20076;-81
2023/05/15 02:29:55;;;;;;;41.35;28.00;;;10.20;99.90;;;;;;5019401;28;20416;-82
2023/05/15 02:32:24;;;;;;;40.17;28.02;;;10.20;99.90;;;;;;5003606;28;20029;-82
2023/05/15 02:35:15;;;;;;;40.75;27.98;;;10.20;99.90;;;;;;5029759;28;20029;-82
2023/05/15 02:37:46;;;;;;;39.72;27.10;;;10.20;99.90;;;;;;5018968;28;20087;-82
2023/05/15 02:40:14;;;;;;;44.53;28.25;;;10.20;99.90;;;;;;5019222;28;20049;-82
2023/05/15 02:42:41;;;;;;;41.05;27.85;;;10.20;99.90;;;;;;4996704;28;20037;-83
2023/05/15 02:45:09;;;;;;;42.70;26.83;;;10.20;99.90;;;;;;5025001;28;20037;-82
2023/05/15 02:47:36;;;;;;;41.53;28.25;;;10.20;99.90;;;;;;5002660;28;20571;-81
2023/05/15 02:50:03;;;;;;;40.28;27.73;;;10.30;99.90;;;;;;4999455;28;20041;-82
2023/05/15 02:52:28;;;;;;;60.38;28.08;;;10.30;99.90;;;;;;5010678;28;20042;-81
2023/05/15 02:54:54;;;;;;;37.78;26.20;;;10.30;99.90;;;;;;4984075;28;20040;-81
2023/05/15 02:57:20;;;;;;;43.40;28.33;;;10.30;99.90;;;;;;5001806;28;20558;-82
2023/05/15 02:59:45;;;;;;;47.80;26.50;;;10.20;99.90;;;;;;5016586;28;20471;-82
2023/05/15 03:02:11;;;;;;;41.15;28.25;;;10.20;99.90;;;;;;5016822;28;20171;-82
2023/05/15 03:04:37;;;;;;;56.85;28.77;;;10.30;99.90;;;;;;5019908;28;20037;-81
2023/05/15 03:07:03;;;;;;;46.20;28.08;;;10.20;99.90;;;;;;4979837;28;20040;-82
2023/05/15 03:09:28;;;;;;;32.33;23.33;;;10.20;99.90;;;;;;5003177;28;20607;-82
2023/05/15 03:11:54;;;;;;;56.45;27.55;;;10.20;99.90;;;;;;5001432;28;20370;-83
2023/05/15 03:14:20;;;;;;;39.30;26.90;;;10.10;99.90;;;;;;5009855;28;20504;-81
2023/05/15 03:16:45;;;;;;;36.10;26.33;;;10.30;99.90;;;;;;5012308;28;20098;-82
2023/05/15 03:19:11;;;;;;;41.58;26.52;;;10.20;99.90;;;;;;5002592;28;20154;-82
2023/05/15 03:21:37;;;;;;;39.88;26.50;;;10.20;99.90;;;;;;4984383;28;20075;-82
2023/05/15 03:24:02;;;;;;;34.40;25.50;;;10.20;99.90;;;;;;4985197;28;20423;-82
2023/05/15 03:26:28;;;;;;;34.90;25.58;;;10.20;99.90;;;;;;4983036;28;20037;-82
2023/05/15 03:28:54;;;;;;;33.78;23.88;;;10.20;99.90;;;;;;4982790;28;20033;-82
2023/05/15 03:31:20;;;;;;;35.10;25.52;;;10.20;99.90;;;;;;4995052;28;20039;-82
2023/05/15 03:33:48;;;;;;;32.78;24.13;;;10.20;99.90;;;;;;5009988;28;20041;-82
2023/05/15 03:36:14;;;;;;;32.80;23.50;;;10.10;99.90;;;;;;4997742;28;20506;-82
2023/05/15 03:38:42;;;;;;;27.58;19.65;;;10.00;99.90;;;;;;4985219;28;20049;-82
2023/05/15 03:41:08;;;;;;;32.22;22.95;;;10.00;99.90;;;;;;5025617;28;20052;-81
2023/05/15 03:43:34;;;;;;;38.35;22.45;;;10.00;99.90;;;;;;4975180;28;20037;-82
2023/05/15 03:46:00;;;;;;;34.75;22.38;;;10.00;99.90;;;;;;4977120;28;20461;-82
2023/05/15 03:48:26;;;;;;;33.22;23.10;;;10.00;99.90;;;;;;5023543;28;20038;-82
2023/05/15 03:50:52;;;;;;;31.42;23.35;;;9.90;99.90;;;;;;4998601;28;20132;-82
2023/05/15 03:53:17;;;;;;;33.72;23.50;;;9.80;99.90;;;;;;4999940;28;20034;-82
2023/05/15 03:55:43;;;;;;;31.02;20.05;;;9.80;99.90;;;;;;5002694;28;20095;-82
2023/05/15 03:58:09;;;;;;;33.15;23.77;;;9.80;99.90;;;;;;4990882;28;20037;-82
2023/05/15 04:00:35;;;;;;;33.72;23.13;;;9.80;99.90;;;;;;5027105;28;20035;-80
2023/05/15 04:03:00;;;;;;;31.15;22.40;;;9.80;99.90;;;;;;5000990;28;20033;-82
2023/05/15 04:05:26;;;;;;;30.60;21.88;;;9.80;99.90;;;;;;5018853;28;20041;-82
2023/05/15 04:07:52;;;;;;;34.38;23.63;;;9.80;99.90;;;;;;5017822;28;20043;-82
2023/05/15 04:10:18;;;;;;;33.47;22.80;;;9.70;99.90;;;;;;4968060;28;20040;-82
2023/05/15 04:12:44;;;;;;;35.08;24.23;;;9.70;99.90;;;;;;5000141;28;20051;-82
2023/05/15 04:15:17;;;;;;;33.78;24.20;;;9.80;99.90;;;;;;5002517;28;20473;-82
2023/05/15 04:17:44;;;;;;;32.25;23.55;;;9.70;99.90;;;;;;5018031;28;20048;-82
2023/05/15 04:20:13;;;;;;;29.40;22.25;;;9.70;99.90;;;;;;5018586;28;20075;-81
2023/05/15 04:22:40;;;;;;;35.00;23.98;;;9.70;99.90;;;;;;4982722;28;20124;-82
2023/05/15 04:25:06;;;;;;;32.55;22.17;;;9.70;99.90;;;;;;4995212;28;20054;-81
2023/05/15 04:27:32;;;;;;;32.17;23.63;;;9.60;99.90;;;;;;4998811;28;20037;-81
2023/05/15 04:29:59;;;;;;;34.25;24.08;;;9.60;99.90;;;;;;5018623;28;20511;-81
2023/05/15 04:32:24;;;;;;;30.20;21.70;;;9.60;99.90;;;;;;4998656;28;20042;-81
2023/05/15 04:34:50;;;;;;;31.20;23.17;;;9.60;99.90;;;;;;5016651;28;20086;-82
2023/05/15 04:37:16;;;;;;;26.95;18.55;;;9.60;99.90;;;;;;4984813;28;20043;-82
2023/05/15 04:39:41;;;;;;;34.53;22.80;;;9.60;99.90;;;;;;5002117;28;20114;-82
2023/05/15 04:42:07;;;;;;;31.20;21.38;;;9.60;99.90;;;;;;5009451;28;20041;-81
2023/05/15 04:44:32;;;;;;;34.00;23.20;;;9.70;99.90;;;;;;4971543;28;20457;-82
2023/05/15 04:46:58;;;;;;;29.02;21.00;;;9.60;99.90;;;;;;5006629;28;20037;-82
2023/05/15 04:49:25;;;;;;;32.72;21.75;;;9.60;99.90;;;;;;4983743;28;20029;-81
2023/05/15 04:51:51;;;;;;;29.05;20.83;;;9.70;99.90;;;;;;4997699;28;20044;-82
2023/05/15 04:54:16;;;;;;;27.35;20.00;;;9.70;99.90;;;;;;5006106;28;20029;-81
2023/05/15 04:56:42;;;;;;;34.65;21.42;;;9.80;99.90;;;;;;5009480;28;20481;-81
2023/05/15 04:59:09;;;;;;;31.48;22.48;;;9.80;99.90;;;;;;5026985;28;20045;-82
2023/05/15 05:01:36;;;;;;;27.70;19.20;;;9.80;99.90;;;;;;5014876;28;20041;-82
2023/05/15 05:04:01;;;;;;;30.83;21.92;;;9.90;99.90;;;;;;4977031;28;20037;-81
2023/05/15 05:06:27;;;;;;;30.17;22.25;;;9.90;99.90;;;;;;4998962;28;20113;-82
2023/05/15 05:08:53;;;;;;;30.50;21.25;;;10.00;99.90;;;;;;5017342;28;20462;-82
2023/05/15 05:11:20;;;;;;;28.90;21.00;;;10.10;99.90;;;;;;5029684;28;20120;-81
2023/05/15 05:13:46;;;;;;;29.75;20.40;;;10.20;99.90;;;;;;5025100;28;20045;-82
2023/05/15 05:16:12;;;;;;;24.55;16.83;;;10.20;99.90;;;;;;5000907;28;20048;-82
2023/05/15 05:18:37;;;;;;;31.35;19.73;;;10.50;99.90;;;;;;5004471;28;20049;-81
2023/05/15 05:21:03;;;;;;;28.77;19.60;;;10.30;99.90;;;;;;5011487;28;20037;-81
2023/05/15 05:23:29;;;;;;;26.77;20.65;;;10.30;99.90;;;;;;5002029;28;20045;-82
2023/05/15 05:25:55;;;;;;;29.20;20.70;;;10.30;99.90;;;;;;5029769;28;20561;-82
2023/05/15 05:28:21;;;;;;;26.90;18.67;;;10.20;99.90;;;;;;4989187;28;20120;-81
2023/05/15 05:30:47;;;;;;;28.60;20.65;;;10.30;99.90;;;;;;5016670;28;20037;-81
2023/05/15 05:33:14;;;;;;;28.90;20.70;;;10.20;99.90;;;;;;5009283;28;20042;-81
2023/05/15 05:35:39;;;;;;;24.02;16.70;;;10.20;99.90;;;;;;4989581;28;20041;-81
2023/05/15 05:38:05;;;;;;;27.23;20.73;;;10.30;99.90;;;;;;5001692;28;20048;-81
2023/05/15 05:40:31;;;;;;;26.55;20.48;;;10.30;99.90;;;;;;4984412;28;20052;-83
2023/05/15 05:43:01;;;;;;;27.45;20.13;;;10.30;99.90;;;;;;5031811;28;20041;-82
2023/05/15 05:45:27;;;;;;;29.67;21.08;;;10.20;99.90;;;;;;5017587;28;20044;-81
2023/05/15 05:47:56;;;;;;;28.08;20.15;;;10.20;99.90;;;;;;5013896;28;20115;-81
2023/05/15 05:50:22;;;;;;;28.25;20.35;;;10.30;99.90;;;;;;5034576;28;20041;-81
2023/05/15 05:52:49;;;;;;;28.30;19.83;;;10.30;99.90;;;;;;5018216;28;20040;-81
2023/05/15 05:55:14;;;;;;;29.92;20.60;;;10.30;99.90;;;;;;5007143;28;20037;-82
2023/05/15 05:57:40;;;;;;;22.13;16.42;;;10.40;99.90;;;;;;4999530;28;20045;-81
2023/05/15 06:00:09;;;;;;;29.70;19.70;;;10.50;99.90;;;;;;5022407;28;20041;-82
2023/05/15 06:02:39;;;;;;;29.65;19.67;;;10.60;99.90;;;;;;5004607;28;20508;-81
2023/05/15 06:05:06;;;;;;;30.40;20.15;;;10.60;99.90;;;;;;5033494;28;20067;-82
2023/05/15 06:07:32;;;;;;;33.15;22.00;;;10.70;99.90;;;;;;5016933;28;20039;-81
2023/05/15 06:09:58;;;;;;;30.42;20.70;;;10.80;99.90;;;;;;5020970;28;20045;-83
2023/05/15 06:12:24;;;;;;;26.00;19.35;;;10.80;99.90;;;;;;5004508;28;20040;-82
2023/05/15 06:14:50;;;;;;;28.63;21.13;;;10.90;99.90;;;;;;4988629;28;20044;-82
2023/05/15 06:17:16;;;;;;;31.13;19.80;;;10.90;99.90;;;;;;5020649;28;20037;-81
2023/05/15 06:19:41;;;;;;;33.28;20.63;;;10.90;99.90;;;;;;5020685;28;20045;-82
2023/05/15 06:22:07;;;;;;;28.38;20.98;;;10.90;99.90;;;;;;5009796;28;20052;-82
2023/05/15 06:24:33;;;;;;;27.08;19.70;;;11.00;99.90;;;;;;5042288;28;20104;-82
2023/05/15 06:26:59;;;;;;;27.58;20.52;;;11.10;99.90;;;;;;4988526;28;20041;-82
2023/05/15 06:29:25;;;;;;;25.65;19.98;;;11.20;99.90;;;;;;4973001;28;20039;-82
2023/05/15 06:31:52;;;;;;;27.60;20.67;;;11.30;99.90;;;;;;5016675;28;20059;-82
2023/05/15 06:34:17;;;;;;;25.30;18.52;;;11.50;99.90;;;;;;5002980;28;20499;-82
2023/05/15 06:36:45;;;;;;;27.92;18.55;;;11.60;99.90;;;;;;5004181;28;20041;-82
2023/05/15 06:39:10;;;;;;;28.23;18.55;;;11.70;99.90;;;;;;4998938;28;20044;-81
2023/05/15 06:41:37;;;;;;;22.35;18.13;;;12.10;99.90;;;;;;5010443;28;20051;-82
2023/05/15 06:44:03;;;;;;;25.00;18.15;;;12.50;99.90;;;;;;4995211;28;20067;-82
2023/05/15 06:46:29;;;;;;;25.33;18.45;;;13.00;99.90;;;;;;5011267;28;20041;-82
2023/05/15 06:48:55;;;;;;;19.23;14.38;;;13.50;99.90;;;;;;4976053;28;20033;-82
2023/05/15 06:51:20;;;;;;;23.75;16.80;;;14.00;99.90;;;;;;5009639;28;20037;-83
2023/05/15 06:53:46;;;;;;;22.63;14.93;;;14.10;99.90;;;;;;4998782;28;20033;-83
2023/05/15 06:56:12;;;;;;;25.90;17.27;;;14.10;99.90;;;;;;5010488;28;20041;-83
2023/05/15 06:58:38;;;;;;;22.75;18.45;;;14.10;99.90;;;;;;5013384;28;20136;-82
2023/05/15 07:01:05;;;;;;;28.52;18.10;;;14.10;99.90;;;;;;5008539;28;20402;-82
2023/05/15 07:03:31;;;;;;;20.05;17.27;;;14.00;99.90;;;;;;4998349;28;20037;-82
2023/05/15 07:05:56;;;;;;;24.60;16.02;;;14.10;99.90;;;;;;5012250;28;20095;-82
2023/05/15 07:08:23;;;;;;;20.48;16.92;;;14.30;99.90;;;;;;5011917;28;20075;-82
2023/05/15 07:10:49;;;;;;;22.70;16.38;;;14.30;99.90;;;;;;5002705;28;20875;-81
2023/05/15 07:13:19;;;;;;;20.35;17.17;;;14.30;99.90;;;;;;4993227;28;20033;-83
2023/05/15 07:15:45;;;;;;;21.75;16.60;;;14.20;99.90;;;;;;4999983;28;20033;-82
2023/05/15 07:18:11;;;;;;;24.52;17.90;;;14.20;99.90;;;;;;5015205;28;20090;-84
2023/05/15 07:20:37;;;;;;;20.90;16.13;;;14.40;99.90;;;;;;5013453;28;20435;-84
2023/05/15 07:23:04;;;;;;;19.45;15.90;;;14.70;99.90;;;;;;5002645;28;20121;-84
2023/05/15 07:25:30;;;;;;;20.55;16.15;;;14.90;99.90;;;;;;5000085;28;20765;-83
2023/05/15 07:27:55;;;;;;;21.13;16.23;;;15.10;99.90;;;;;;5026887;28;20053;-82
2023/05/15 07:30:21;;;;;;;21.52;15.93;;;15.20;99.90;;;;;;4994389;28;20037;-82
2023/05/15 07:32:47;;;;;;;23.30;15.68;;;15.40;99.90;;;;;;5008122;28;20045;-82
2023/05/15 07:35:13;;;;;;;20.67;15.73;;;15.70;99.90;;;;;;5034813;28;20041;-82
2023/05/15 07:37:39;;;;;;;18.88;15.65;;;15.90;99.90;;;;;;5018695;28;20393;-82
2023/05/15 07:40:06;;;;;;;19.98;15.60;;;16.20;99.90;;;;;;4985373;28;20045;-82
2023/05/15 07:42:32;;;;;;;19.35;15.68;;;16.20;99.90;;;;;;5015760;28;20041;-81
2023/05/15 07:44:58;;;;;;;21.10;13.52;;;16.10;99.90;;;;;;5009052;28;20060;-82
2023/05/15 07:47:23;;;;;;;22.60;16.35;;;16.10;99.90;;;;;;4999154;28;20111;-82
2023/05/15 07:49:49;;;;;;;17.75;15.43;;;16.10;99.90;;;;;;4994435;28;20037;-81
2023/05/15 07:52:15;;;;;;;18.73;15.27;;;16.20;99.90;;;;;;5003730;28;20037;-81
2023/05/15 07:54:41;;;;;;;19.92;15.35;;;16.40;99.90;;;;;;4998805;28;20377;-82
2023/05/15 07:57:07;;;;;;;17.55;15.30;;;16.50;99.90;;;;;;5001108;28;20481;-82
2023/05/15 07:59:34;;;;;;;19.73;15.52;;;16.60;99.90;;;;;;4986544;28;20072;-81
2023/05/15 08:02:00;;;;;;;21.88;15.60;;;16.60;99.90;;;;;;5002729;28;20041;-82
2023/05/15 08:04:26;;;;;;;18.00;15.32;;;16.50;99.90;;;;;;5002836;28;20051;-82
2023/05/15 08:06:52;;;;;;;18.00;14.73;;;16.50;99.90;;;;;;5015772;28;20045;-82
2023/05/15 08:09:18;;;;;;;18.35;14.23;;;16.50;99.90;;;;;;4984462;28;20041;-82
2023/05/15 08:11:43;;;;;;;20.83;14.90;;;16.50;99.90;;;;;;4994934;28;20064;-82
2023/05/15 08:14:09;;;;;;;19.98;14.88;;;16.50;99.90;;;;;;4982594;28;20041;-82
2023/05/15 08:16:35;;;;;;;17.67;14.82;;;16.40;99.90;;;;;;5006244;28;20037;-82
2023/05/15 08:19:03;;;;;;;20.85;16.13;;;16.50;99.90;;;;;;4982288;28;20104;-81
2023/05/15 08:21:30;;;;;;;20.70;15.20;;;16.40;99.90;;;;;;4967616;28;20052;-82
2023/05/15 08:23:56;;;;;;;18.90;14.52;;;16.50;99.90;;;;;;4998931;28;20124;-80
2023/05/15 08:26:21;;;;;;;19.05;15.55;;;16.70;99.90;;;;;;5021004;28;20114;-82
2023/05/15 08:28:47;;;;;;;20.13;15.20;;;17.00;99.90;;;;;;5018206;28;20497;-82
2023/05/15 08:31:13;;;;;;;18.65;14.63;;;17.20;99.90;;;;;;5027930;28;20404;-82
2023/05/15 08:33:39;;;;;;;16.60;14.75;;;17.20;99.90;;;;;;5013228;28;20102;-82
2023/05/15 08:36:05;;;;;;;17.25;14.80;;;17.40;99.90;;;;;;5003618;28;20030;-82
2023/05/15 08:38:30;;;;;;;19.45;14.23;;;17.40;99.90;;;;;;5017547;28;20029;-83
2023/05/15 08:41:01;;;;;;;15.88;13.77;;;17.30;99.90;;;;;;4985396;28;20435;-82
2023/05/15 08:43:30;;;;;;;16.83;14.60;;;17.30;99.90;;;;;;5002557;28;20184;-81
2023/05/15 08:45:57;;;;;;;18.17;14.57;;;17.50;99.90;;;;;;5018287;28;20527;-82
2023/05/15 08:48:25;;;;;;;22.35;13.65;;;17.60;99.90;;;;;;5003068;28;20037;-82
2023/05/15 08:50:51;;;;;;;20.00;13.55;;;17.70;99.90;;;;;;4986843;28;20048;-81
2023/05/15 08:53:17;;;;;;;15.38;13.00;;;17.60;99.90;;;;;;4986442;28;20087;-82
2023/05/15 08:55:44;;;;;;;15.98;13.20;;;17.60;99.90;;;;;;5002578;28;20040;-82
2023/05/15 08:58:09;;;;;;;17.38;14.05;;;17.60;99.90;;;;;;4998743;28;20116;-81
2023/05/15 09:00:36;;;;;;;17.67;13.13;;;17.70;99.90;;;;;;4982607;28;20535;-83
2023/05/15 09:03:02;;;;;;;15.57;12.52;;;17.70;99.90;;;;;;5020163;28;20037;-82
2023/05/15 09:05:29;;;;;;;14.30;12.55;;;17.70;99.90;;;;;;5006312;28;20133;-82
2023/05/15 09:07:57;;;;;;;16.42;13.52;;;18.00;99.90;;;;;;5035389;28;20405;-81
2023/05/15 09:10:23;;;;;;;15.60;13.00;;;17.80;99.90;;;;;;5018362;28;20098;-83
2023/05/15 09:12:50;;;;;;;19.38;13.13;;;17.70;99.90;;;;;;5016626;28;20088;-81
2023/05/15 09:15:20;;;;;;;15.55;12.65;;;17.80;99.90;;;;;;5001442;28;20095;-82
2023/05/15 09:17:47;;;;;;;15.15;13.38;;;17.80;99.90;;;;;;5002011;28;20036;-82
2023/05/15 09:20:33;;;;;;;20.80;13.07;;;17.80;99.90;;;;;;5018247;28;20136;-81
2023/05/15 09:23:01;;;;;;;18.73;13.93;;;17.80;99.90;;;;;;5034350;28;20047;-81
2023/05/15 09:25:43;;;;;;;15.63;12.65;;;17.80;99.90;;;;;;5017796;28;20136;-81
2023/05/15 09:28:23;;;;;;;16.67;12.73;;;18.00;99.90;;;;;;5001315;28;20144;-81
2023/05/15 09:30:49;;;;;;;14.02;12.45;;;18.10;99.90;;;;;;5007256;28;20040;-82
2023/05/15 09:33:16;;;;;;;15.90;12.15;;;18.10;99.90;;;;;;5037764;28;20578;-82
2023/05/15 09:35:42;;;;;;;18.25;13.05;;;18.10;99.90;;;;;;5019554;28;20051;-82
2023/05/15 09:38:10;;;;;;;15.25;12.50;;;18.00;99.90;;;;;;5019766;28;20038;-82
2023/05/15 09:40:38;;;;;;;17.35;13.32;;;17.90;99.90;;;;;;5021263;28;20405;-82
2023/05/15 09:43:04;;;;;;;18.50;14.57;;;17.80;99.90;;;;;;5021046;28;20126;-81
2023/05/15 09:45:30;;;;;;;18.13;15.07;;;17.70;99.90;;;;;;5037955;28;20044;-81
2023/05/15 09:47:58;;;;;;;19.52;14.38;;;17.70;99.90;;;;;;5000788;28;20037;-81
2023/05/15 09:50:34;;;;;;;18.55;15.00;;;17.70;99.90;;;;;;5019333;28;20049;-82
2023/05/15 09:53:01;;;;;;;18.27;12.85;;;17.60;99.90;;;;;;5021235;28;20033;-83
2023/05/15 09:55:26;;;;;;;25.27;17.08;;;17.70;99.90;;;;;;5019657;28;20033;-82
2023/05/15 09:58:05;;;;;;;17.70;15.82;;;17.70;99.90;;;;;;5000958;28;20121;-83
2023/05/15 10:00:32;;;;;;;17.05;15.25;;;17.70;99.90;;;;;;5020658;28;20045;-83
2023/05/15 10:02:59;;;;;;;25.23;17.42;;;17.80;99.90;;;;;;5021978;28;20045;-82
2023/05/15 10:05:29;;;;;;;24.17;16.60;;;17.80;99.90;;;;;;5021403;28;20544;-82
2023/05/15 10:07:57;;;;;;;23.27;16.67;;;17.80;99.90;;;;;;5004639;28;20033;-83
2023/05/15 10:10:24;;;;;;;19.15;16.33;;;17.80;99.90;;;;;;5021015;28;20032;-84
2023/05/15 10:12:51;;;;;;;19.77;15.65;;;17.90;99.90;;;;;;5004472;28;20045;-83
2023/05/15 10:15:18;;;;;;;18.30;14.75;;;18.00;99.90;;;;;;5020916;28;20228;-84
2023/05/15 10:17:47;;;;;;;19.10;15.95;;;18.10;99.90;;;;;;5019310;28;20131;-83
2023/05/15 10:20:15;;;;;;;20.13;15.05;;;18.10;99.90;;;;;;5032109;28;20125;-83
2023/05/15 10:22:44;;;;;;;18.23;16.10;;;18.00;99.90;;;;;;5001076;28;20041;-83
2023/05/15 10:25:38;;;;;;;17.38;15.57;;;17.90;99.90;;;;;;5000967;28;20137;-83
2023/05/15 10:28:08;;;;;;;17.58;14.88;;;17.80;99.90;;;;;;5001019;28;20099;-83
2023/05/15 10:30:35;;;;;;;15.98;14.27;;;17.80;99.90;;;;;;5034617;28;20045;-83
2023/05/15 10:33:03;;;;;;;17.13;14.35;;;17.80;99.90;;;;;;5020186;28;20072;-83
2023/05/15 10:35:29;;;;;;;21.30;15.07;;;17.70;99.90;;;;;;5020643;28;20401;-83
2023/05/15 10:37:56;;;;;;;17.60;15.65;;;17.70;99.90;;;;;;5020183;28;20083;-84
2023/05/15 10:40:23;;;;;;;21.20;14.93;;;17.70;99.90;;;;;;4986582;28;20044;-83
2023/05/15 10:42:49;;;;;;;22.27;16.20;;;17.80;99.90;;;;;;5014712;28;20048;-83
2023/05/15 10:45:15;;;;;;;19.58;14.70;;;17.80;99.90;;;;;;5036797;28;20052;-83
2023/05/15 10:47:42;;;;;;;21.40;14.45;;;17.90;99.90;;;;;;5003333;28;20047;-83
2023/05/15 10:50:10;;;;;;;18.15;14.60;;;17.80;99.90;;;;;;5020309;28;20423;-83
2023/05/15 10:52:37;;;;;;;20.63;14.02;;;17.90;99.90;;;;;;5018519;28;20040;-83
2023/05/15 10:55:08;;;;;;;22.98;15.25;;;18.00;99.90;;;;;;5019983;28;20041;-83
2023/05/15 10:57:35;;;;;;;19.80;13.45;;;18.00;99.90;;;;;;5036307;28;20048;-82
2023/05/15 11:00:01;;;;;;;17.88;13.13;;;18.00;99.90;;;;;;5036700;28;20109;-84
2023/05/15 11:02:30;;;;;;;15.68;13.00;;;18.00;99.90;;;;;;5035557;28;20037;-83
2023/05/15 11:05:00;;;;;;;17.77;13.05;;;17.90;99.90;;;;;;5014635;28;20288;-83
2023/05/15 11:07:27;;;;;;;18.98;11.73;;;17.80;99.90;;;;;;4987170;28;20523;-83
2023/05/15 11:09:54;;;;;;;14.27;12.43;;;17.80;99.90;;;;;;5019762;28;20064;-84
2023/05/15 11:12:21;;;;;;;17.08;10.95;;;17.80;99.90;;;;;;5020958;28;20126;-83
2023/05/15 11:14:55;;;;;;;12.80;11.32;;;17.80;99.90;;;;;;5021412;28;20493;-83
2023/05/15 11:17:25;;;;;;;15.45;12.23;;;17.90;99.90;;;;;;5019525;28;20048;-82
2023/05/15 11:19:50;;;;;;;11.88;9.70;;;18.00;99.90;;;;;;5019877;28;20055;-81
2023/05/15 11:22:19;;;;;;;12.20;10.00;;;18.00;99.90;;;;;;5019680;28;20045;-83
2023/05/15 11:24:57;;;;;;;15.43;10.45;;;18.10;99.90;;;;;;5018960;28;20043;-83
2023/05/15 11:27:53;;;;;;;11.80;9.07;;;18.10;99.90;;;;;;5012447;28;20047;-83
2023/05/15 11:30:21;;;;;;;11.20;8.93;;;18.10;99.90;;;;;;5007253;28;20508;-83
2023/05/15 11:32:46;;;;;;;12.32;8.23;;;18.10;99.90;;;;;;5019873;28;20515;-83
2023/05/15 11:35:29;;;;;;;11.85;8.70;;;18.20;99.90;;;;;;5019867;28;20064;-85
2023/05/15 11:38:04;;;;;;;9.40;7.75;;;18.20;99.90;;;;;;5035273;28;20488;-84
2023/05/15 11:40:31;;;;;;;14.40;8.13;;;18.20;99.90;;;;;;5019696;28;20096;-84
2023/05/15 11:43:17;;;;;;;13.88;7.60;;;18.20;99.90;;;;;;5003259;28;20700;-84
2023/05/15 11:45:46;;;;;;;9.02;7.25;;;18.30;99.90;;;;;;5035881;28;20512;-84
2023/05/15 11:48:14;;;;;;;14.75;7.60;;;18.30;99.90;;;;;;5016509;28;20052;-83
2023/05/15 11:50:41;;;;;;;13.20;11.77;;;18.30;99.90;;;;;;5028305;28;20064;-83
2023/05/15 11:53:08;;;;;;;12.88;10.60;;;18.40;99.90;;;;;;4986386;28;20120;-84
2023/05/15 11:55:40;;;;;;;14.40;11.45;;;18.40;99.90;;;;;;5003277;28;20392;-82
2023/05/15 11:58:12;;;;;;;13.02;10.60;;;18.50;99.90;;;;;;5019167;28;20059;-83
2023/05/15 12:00:38;;;;;;;11.70;10.43;;;18.60;99.90;;;;;;5034640;28;20048;-83
2023/05/15 12:03:04;;;;;;;15.65;10.25;;;18.60;99.90;;;;;;5018838;28;20072;-83
2023/05/15 12:05:30;;;;;;;16.20;10.10;;;18.60;99.90;;;;;;4986377;28;20079;-83
2023/05/15 12:07:57;;;;;;;16.63;9.50;;;18.60;99.90;;;;;;5018699;28;20076;-83
2023/05/15 12:10:22;;;;;;;14.60;10.18;;;18.70;99.90;;;;;;4985953;28;20124;-83
2023/05/15 12:12:48;;;;;;;11.65;9.48;;;18.60;99.90;;;;;;5001578;28;20120;-83
2023/05/15 12:15:15;;;;;;;13.23;8.95;;;18.70;99.90;;;;;;5002780;28;20393;-84
2023/05/15 12:17:43;;;;;;;10.15;7.63;;;18.70;99.90;;;;;;5014255;28;20118;-83
2023/05/15 12:20:15;;;;;;;9.18;6.78;;;18.70;99.90;;;;;;4987147;28;20049;-83
2023/05/15 12:22:41;;;;;;;9.40;7.70;;;18.80;99.90;;;;;;5019118;28;20128;-82
2023/05/15 12:25:08;;;;;;;7.53;6.65;;;18.80;99.90;;;;;;5025366;28;20060;-84
2023/05/15 12:27:35;;;;;;;8.85;6.85;;;18.80;99.90;;;;;;5022895;28;20541;-83
2023/05/15 12:30:02;;;;;;;10.70;6.93;;;18.80;99.90;;;;;;5002902;28;20033;-83